sensor_id;sensor_type;location;lat;lon;timestamp;P1;durP1;ratioP1;P2;durP2;ratioP2
74269;SDS011;62754;48.252;11.654;2023-07-22T00:02:24;4.50;;;1.90;;
74269;SDS011;62754;48.252;11.654;2023-07-22T00:04:55;4.07;;;1.50;;
74269;SDS011;62754;48.252;11.654;2023-07-22T00:07:21;2.72;;;1.60;;
74269;SDS011;62754;48.252;11.654;2023-07-22T00:09:47;4.85;;;2.15;;
74269;SDS011;62754;48.252;11.654;2023-07-22T00:12:15;5.88;;;1.80;;
74269;SDS011;62754;48.252;11.654;2023-07-22T00:14:41;4.03;;;1.92;;
74269;SDS011;62754;48.252;11.654;2023-07-22T00:17:07;4.30;;;2.22;;
74269;SDS011;62754;48.252;11.654;2023-07-22T00:19:36;3.92;;;1.95;;
74269;SDS011;62754;48.252;11.654;2023-07-22T00:22:01;3.15;;;2.20;;
74269;SDS011;62754;48.252;11.654;2023-07-22T00:24:29;4.07;;;1.92;;
74269;SDS011;62754;48.252;11.654;2023-07-22T00:26:55;5.25;;;2.20;;
74269;SDS011;62754;48.252;11.654;2023-07-22T00:29:21;4.72;;;2.10;;
74269;SDS011;62754;48.252;11.654;2023-07-22T00:31:47;4.22;;;1.95;;
74269;SDS011;62754;48.252;11.654;2023-07-22T00:34:15;4.90;;;2.15;;
74269;SDS011;62754;48.252;11.654;2023-07-22T00:36:43;4.60;;;2.20;;
74269;SDS011;62754;48.252;11.654;2023-07-22T00:39:08;3.70;;;2.22;;
74269;SDS011;62754;48.252;11.654;2023-07-22T00:41:34;6.85;;;2.30;;
74269;SDS011;62754;48.252;11.654;2023-07-22T00:44:00;4.25;;;2.38;;
74269;SDS011;62754;48.252;11.654;2023-07-22T00:46:28;4.47;;;2.33;;
74269;SDS011;62754;48.252;11.654;2023-07-22T00:48:56;5.75;;;2.30;;
74269;SDS011;62754;48.252;11.654;2023-07-22T00:51:24;5.57;;;2.20;;
74269;SDS011;62754;48.252;11.654;2023-07-22T00:53:50;4.15;;;1.90;;
74269;SDS011;62754;48.252;11.654;2023-07-22T00:56:20;5.53;;;2.03;;
74269;SDS011;62754;48.252;11.654;2023-07-22T00:58:48;4.53;;;2.35;;
74269;SDS011;62754;48.252;11.654;2023-07-22T01:01:17;4.38;;;2.30;;
74269;SDS011;62754;48.252;11.654;2023-07-22T01:03:42;5.03;;;2.30;;
74269;SDS011;62754;48.252;11.654;2023-07-22T01:06:09;5.30;;;2.72;;
74269;SDS011;62754;48.252;11.654;2023-07-22T01:08:35;3.42;;;1.83;;
74269;SDS011;62754;48.252;11.654;2023-07-22T01:11:01;3.95;;;2.42;;
74269;SDS011;62754;48.252;11.654;2023-07-22T01:13:27;4.07;;;2.20;;
74269;SDS011;62754;48.252;11.654;2023-07-22T01:15:53;6.53;;;2.47;;
74269;SDS011;62754;48.252;11.654;2023-07-22T01:18:18;3.78;;;2.22;;
74269;SDS011;62754;48.252;11.654;2023-07-22T01:20:49;4.00;;;2.50;;
74269;SDS011;62754;48.252;11.654;2023-07-22T01:23:15;4.63;;;2.33;;
74269;SDS011;62754;48.252;11.654;2023-07-22T01:25:43;5.25;;;2.80;;
74269;SDS011;62754;48.252;11.654;2023-07-22T01:28:14;5.35;;;2.60;;
74269;SDS011;62754;48.252;11.654;2023-07-22T01:30:42;5.70;;;2.88;;
74269;SDS011;62754;48.252;11.654;2023-07-22T01:33:08;4.68;;;2.70;;
74269;SDS011;62754;48.252;11.654;2023-07-22T01:35:36;4.70;;;2.70;;
74269;SDS011;62754;48.252;11.654;2023-07-22T01:38:02;4.78;;;2.78;;
74269;SDS011;62754;48.252;11.654;2023-07-22T01:40:27;6.45;;;3.65;;
74269;SDS011;62754;48.252;11.654;2023-07-22T01:42:53;7.63;;;3.00;;
74269;SDS011;62754;48.252;11.654;2023-07-22T01:45:19;3.97;;;2.30;;
74269;SDS011;62754;48.252;11.654;2023-07-22T01:47:48;6.10;;;2.80;;
74269;SDS011;62754;48.252;11.654;2023-07-22T01:50:16;7.10;;;3.22;;
74269;SDS011;62754;48.252;11.654;2023-07-22T01:52:46;5.00;;;2.83;;
74269;SDS011;62754;48.252;11.654;2023-07-22T01:55:12;4.88;;;2.70;;
74269;SDS011;62754;48.252;11.654;2023-07-22T01:57:41;5.03;;;2.83;;
74269;SDS011;62754;48.252;11.654;2023-07-22T02:00:07;3.85;;;2.55;;
74269;SDS011;62754;48.252;11.654;2023-07-22T02:02:36;6.68;;;2.83;;
74269;SDS011;62754;48.252;11.654;2023-07-22T02:05:01;3.55;;;2.35;;
74269;SDS011;62754;48.252;11.654;2023-07-22T02:07:27;4.57;;;2.60;;
74269;SDS011;62754;48.252;11.654;2023-07-22T02:09:55;4.43;;;2.80;;
74269;SDS011;62754;48.252;11.654;2023-07-22T02:12:23;5.38;;;2.75;;
74269;SDS011;62754;48.252;11.654;2023-07-22T02:14:52;4.65;;;2.47;;
74269;SDS011;62754;48.252;11.654;2023-07-22T02:17:17;6.35;;;3.17;;
74269;SDS011;62754;48.252;11.654;2023-07-22T02:19:46;4.70;;;2.70;;
74269;SDS011;62754;48.252;11.654;2023-07-22T02:22:11;8.02;;;2.88;;
74269;SDS011;62754;48.252;11.654;2023-07-22T02:24:37;6.80;;;3.35;;
74269;SDS011;62754;48.252;11.654;2023-07-22T02:27:05;4.68;;;3.05;;
74269;SDS011;62754;48.252;11.654;2023-07-22T02:29:34;5.60;;;2.90;;
74269;SDS011;62754;48.252;11.654;2023-07-22T02:32:00;4.57;;;3.13;;
74269;SDS011;62754;48.252;11.654;2023-07-22T02:34:26;5.72;;;2.63;;
74269;SDS011;62754;48.252;11.654;2023-07-22T02:36:54;5.07;;;3.13;;
74269;SDS011;62754;48.252;11.654;2023-07-22T02:39:20;5.55;;;3.20;;
74269;SDS011;62754;48.252;11.654;2023-07-22T02:41:45;4.47;;;2.78;;
74269;SDS011;62754;48.252;11.654;2023-07-22T02:44:11;4.97;;;2.80;;
74269;SDS011;62754;48.252;11.654;2023-07-22T02:46:39;7.78;;;3.28;;
74269;SDS011;62754;48.252;11.654;2023-07-22T02:49:07;7.47;;;4.50;;
74269;SDS011;62754;48.252;11.654;2023-07-22T02:51:36;7.40;;;5.80;;
74269;SDS011;62754;48.252;11.654;2023-07-22T02:54:02;7.63;;;5.63;;
74269;SDS011;62754;48.252;11.654;2023-07-22T02:56:28;8.75;;;4.75;;
74269;SDS011;62754;48.252;11.654;2023-07-22T02:58:56;5.32;;;4.18;;
74269;SDS011;62754;48.252;11.654;2023-07-22T03:01:22;7.00;;;3.72;;
74269;SDS011;62754;48.252;11.654;2023-07-22T03:03:47;5.97;;;3.58;;
74269;SDS011;62754;48.252;11.654;2023-07-22T03:06:13;5.82;;;3.72;;
74269;SDS011;62754;48.252;11.654;2023-07-22T03:08:39;5.70;;;3.20;;
74269;SDS011;62754;48.252;11.654;2023-07-22T03:11:05;5.57;;;3.22;;
74269;SDS011;62754;48.252;11.654;2023-07-22T03:13:31;5.07;;;3.20;;
74269;SDS011;62754;48.252;11.654;2023-07-22T03:15:57;4.60;;;2.70;;
74269;SDS011;62754;48.252;11.654;2023-07-22T03:20:51;6.85;;;2.78;;
74269;SDS011;62754;48.252;11.654;2023-07-22T03:23:16;6.30;;;2.85;;
74269;SDS011;62754;48.252;11.654;2023-07-22T03:25:42;5.68;;;2.70;;
74269;SDS011;62754;48.252;11.654;2023-07-22T03:28:10;5.07;;;2.80;;
74269;SDS011;62754;48.252;11.654;2023-07-22T03:30:36;5.20;;;3.13;;
74269;SDS011;62754;48.252;11.654;2023-07-22T03:33:03;6.68;;;3.83;;
74269;SDS011;62754;48.252;11.654;2023-07-22T03:35:29;5.60;;;3.85;;
74269;SDS011;62754;48.252;11.654;2023-07-22T03:37:55;6.05;;;3.63;;
74269;SDS011;62754;48.252;11.654;2023-07-22T03:40:21;6.78;;;3.75;;
74269;SDS011;62754;48.252;11.654;2023-07-22T03:42:50;6.65;;;3.45;;
74269;SDS011;62754;48.252;11.654;2023-07-22T03:45:17;6.13;;;3.15;;
74269;SDS011;62754;48.252;11.654;2023-07-22T03:47:46;8.10;;;3.38;;
74269;SDS011;62754;48.252;11.654;2023-07-22T03:50:13;5.85;;;3.30;;
74269;SDS011;62754;48.252;11.654;2023-07-22T03:52:41;4.55;;;3.03;;
74269;SDS011;62754;48.252;11.654;2023-07-22T03:55:09;5.10;;;3.20;;
74269;SDS011;62754;48.252;11.654;2023-07-22T03:57:37;7.22;;;3.50;;
74269;SDS011;62754;48.252;11.654;2023-07-22T04:00:05;4.93;;;3.10;;
74269;SDS011;62754;48.252;11.654;2023-07-22T04:02:34;5.38;;;3.53;;
74269;SDS011;62754;48.252;11.654;2023-07-22T04:05:00;5.47;;;3.83;;
74269;SDS011;62754;48.252;11.654;2023-07-22T04:07:26;5.53;;;3.88;;
74269;SDS011;62754;48.252;11.654;2023-07-22T04:09:51;6.85;;;4.00;;
74269;SDS011;62754;48.252;11.654;2023-07-22T04:12:19;7.10;;;4.53;;
74269;SDS011;62754;48.252;11.654;2023-07-22T04:14:47;5.97;;;5.00;;
74269;SDS011;62754;48.252;11.654;2023-07-22T04:17:15;6.45;;;4.78;;
74269;SDS011;62754;48.252;11.654;2023-07-22T04:19:41;6.97;;;4.10;;
74269;SDS011;62754;48.252;11.654;2023-07-22T04:22:10;6.82;;;3.50;;
74269;SDS011;62754;48.252;11.654;2023-07-22T04:24:35;7.93;;;4.00;;
74269;SDS011;62754;48.252;11.654;2023-07-22T04:27:01;6.00;;;3.30;;
74269;SDS011;62754;48.252;11.654;2023-07-22T04:29:27;5.82;;;3.40;;
74269;SDS011;62754;48.252;11.654;2023-07-22T04:31:59;5.82;;;3.28;;
74269;SDS011;62754;48.252;11.654;2023-07-22T04:34:28;5.35;;;3.65;;
74269;SDS011;62754;48.252;11.654;2023-07-22T04:36:55;4.80;;;3.22;;
74269;SDS011;62754;48.252;11.654;2023-07-22T04:39:23;6.15;;;3.58;;
74269;SDS011;62754;48.252;11.654;2023-07-22T04:41:49;4.97;;;3.40;;
74269;SDS011;62754;48.252;11.654;2023-07-22T04:44:15;5.35;;;3.35;;
74269;SDS011;62754;48.252;11.654;2023-07-22T04:46:43;5.90;;;3.50;;
74269;SDS011;62754;48.252;11.654;2023-07-22T04:49:09;6.63;;;3.80;;
74269;SDS011;62754;48.252;11.654;2023-07-22T04:51:37;4.93;;;3.15;;
74269;SDS011;62754;48.252;11.654;2023-07-22T04:54:05;5.88;;;3.33;;
74269;SDS011;62754;48.252;11.654;2023-07-22T04:56:31;5.15;;;3.40;;
74269;SDS011;62754;48.252;11.654;2023-07-22T04:58:59;4.95;;;3.40;;
74269;SDS011;62754;48.252;11.654;2023-07-22T05:01:24;5.60;;;3.60;;
74269;SDS011;62754;48.252;11.654;2023-07-22T05:03:53;5.22;;;2.97;;
74269;SDS011;62754;48.252;11.654;2023-07-22T05:06:21;5.50;;;3.15;;
74269;SDS011;62754;48.252;11.654;2023-07-22T05:08:47;7.88;;;3.70;;
74269;SDS011;62754;48.252;11.654;2023-07-22T05:11:18;5.80;;;3.58;;
74269;SDS011;62754;48.252;11.654;2023-07-22T05:13:46;5.18;;;3.55;;
74269;SDS011;62754;48.252;11.654;2023-07-22T05:16:14;5.78;;;3.47;;
74269;SDS011;62754;48.252;11.654;2023-07-22T05:18:40;6.65;;;3.53;;
74269;SDS011;62754;48.252;11.654;2023-07-22T05:21:08;5.90;;;3.28;;
74269;SDS011;62754;48.252;11.654;2023-07-22T05:23:34;5.13;;;3.30;;
74269;SDS011;62754;48.252;11.654;2023-07-22T05:26:04;5.53;;;3.33;;
74269;SDS011;62754;48.252;11.654;2023-07-22T05:28:30;4.80;;;3.17;;
74269;SDS011;62754;48.252;11.654;2023-07-22T05:30:56;5.97;;;3.35;;
74269;SDS011;62754;48.252;11.654;2023-07-22T05:33:21;6.38;;;3.20;;
74269;SDS011;62754;48.252;11.654;2023-07-22T05:35:53;4.93;;;2.90;;
74269;SDS011;62754;48.252;11.654;2023-07-22T05:38:20;5.13;;;2.97;;
74269;SDS011;62754;48.252;11.654;2023-07-22T05:40:46;5.03;;;2.83;;
74269;SDS011;62754;48.252;11.654;2023-07-22T05:43:12;5.93;;;3.10;;
74269;SDS011;62754;48.252;11.654;2023-07-22T05:45:38;6.18;;;2.72;;
74269;SDS011;62754;48.252;11.654;2023-07-22T05:48:03;5.53;;;3.03;;
74269;SDS011;62754;48.252;11.654;2023-07-22T05:50:29;4.28;;;2.35;;
74269;SDS011;62754;48.252;11.654;2023-07-22T05:52:55;5.22;;;2.40;;
74269;SDS011;62754;48.252;11.654;2023-07-22T05:55:21;3.97;;;2.40;;
74269;SDS011;62754;48.252;11.654;2023-07-22T05:57:47;4.72;;;2.60;;
74269;SDS011;62754;48.252;11.654;2023-07-22T06:00:12;4.90;;;2.50;;
74269;SDS011;62754;48.252;11.654;2023-07-22T06:02:41;5.68;;;2.20;;
74269;SDS011;62754;48.252;11.654;2023-07-22T06:05:09;4.97;;;2.25;;
74269;SDS011;62754;48.252;11.654;2023-07-22T06:07:35;3.90;;;2.25;;
74269;SDS011;62754;48.252;11.654;2023-07-22T06:10:03;4.18;;;2.03;;
74269;SDS011;62754;48.252;11.654;2023-07-22T06:12:31;4.32;;;2.40;;
74269;SDS011;62754;48.252;11.654;2023-07-22T06:14:57;3.50;;;2.05;;
74269;SDS011;62754;48.252;11.654;2023-07-22T06:17:25;5.30;;;1.92;;
74269;SDS011;62754;48.252;11.654;2023-07-22T06:19:55;3.97;;;1.90;;
74269;SDS011;62754;48.252;11.654;2023-07-22T06:22:21;3.50;;;1.70;;
74269;SDS011;62754;48.252;11.654;2023-07-22T06:24:46;4.63;;;2.15;;
74269;SDS011;62754;48.252;11.654;2023-07-22T06:27:14;4.43;;;1.70;;
74269;SDS011;62754;48.252;11.654;2023-07-22T06:29:45;3.20;;;1.65;;
74269;SDS011;62754;48.252;11.654;2023-07-22T06:32:11;3.10;;;1.60;;
74269;SDS011;62754;48.252;11.654;2023-07-22T06:34:39;3.50;;;1.60;;
74269;SDS011;62754;48.252;11.654;2023-07-22T06:37:07;3.38;;;1.67;;
74269;SDS011;62754;48.252;11.654;2023-07-22T06:39:35;4.43;;;2.10;;
74269;SDS011;62754;48.252;11.654;2023-07-22T06:42:01;4.15;;;1.80;;
74269;SDS011;62754;48.252;11.654;2023-07-22T06:44:31;4.10;;;1.73;;
74269;SDS011;62754;48.252;11.654;2023-07-22T06:47:01;3.65;;;1.63;;
74269;SDS011;62754;48.252;11.654;2023-07-22T06:49:29;3.50;;;1.75;;
74269;SDS011;62754;48.252;11.654;2023-07-22T06:51:58;5.38;;;1.83;;
74269;SDS011;62754;48.252;11.654;2023-07-22T06:54:26;2.70;;;1.67;;
74269;SDS011;62754;48.252;11.654;2023-07-22T06:56:54;3.17;;;1.60;;
74269;SDS011;62754;48.252;11.654;2023-07-22T06:59:22;3.53;;;1.33;;
74269;SDS011;62754;48.252;11.654;2023-07-22T07:01:47;2.55;;;1.40;;
74269;SDS011;62754;48.252;11.654;2023-07-22T07:04:13;3.38;;;1.70;;
74269;SDS011;62754;48.252;11.654;2023-07-22T07:06:39;3.72;;;1.60;;
74269;SDS011;62754;48.252;11.654;2023-07-22T07:09:05;5.22;;;1.60;;
74269;SDS011;62754;48.252;11.654;2023-07-22T07:11:33;3.33;;;1.50;;
74269;SDS011;62754;48.252;11.654;2023-07-22T07:13:58;5.38;;;1.60;;
74269;SDS011;62754;48.252;11.654;2023-07-22T07:16:27;3.20;;;1.40;;
74269;SDS011;62754;48.252;11.654;2023-07-22T07:18:54;3.08;;;1.40;;
74269;SDS011;62754;48.252;11.654;2023-07-22T07:21:20;3.50;;;1.40;;
74269;SDS011;62754;48.252;11.654;2023-07-22T07:23:47;2.95;;;1.25;;
74269;SDS011;62754;48.252;11.654;2023-07-22T07:26:16;2.95;;;1.42;;
74269;SDS011;62754;48.252;11.654;2023-07-22T07:28:42;3.95;;;1.40;;
74269;SDS011;62754;48.252;11.654;2023-07-22T07:31:08;3.83;;;1.42;;
74269;SDS011;62754;48.252;11.654;2023-07-22T07:36:07;2.85;;;1.30;;
74269;SDS011;62754;48.252;11.654;2023-07-22T07:38:33;3.00;;;1.20;;
74269;SDS011;62754;48.252;11.654;2023-07-22T07:41:04;2.33;;;1.30;;
74269;SDS011;62754;48.252;11.654;2023-07-22T07:43:33;2.03;;;1.00;;
74269;SDS011;62754;48.252;11.654;2023-07-22T07:46:16;3.47;;;1.55;;
74269;SDS011;62754;48.252;11.654;2023-07-22T07:48:47;3.13;;;1.50;;
74269;SDS011;62754;48.252;11.654;2023-07-22T07:51:17;2.65;;;1.35;;
74269;SDS011;62754;48.252;11.654;2023-07-22T07:53:46;3.92;;;1.20;;
74269;SDS011;62754;48.252;11.654;2023-07-22T07:56:13;2.30;;;1.30;;
74269;SDS011;62754;48.252;11.654;2023-07-22T07:58:39;2.28;;;1.17;;
74269;SDS011;62754;48.252;11.654;2023-07-22T08:01:10;3.00;;;1.25;;
74269;SDS011;62754;48.252;11.654;2023-07-22T08:03:36;4.05;;;1.23;;
74269;SDS011;62754;48.252;11.654;2023-07-22T08:06:03;3.15;;;1.50;;
74269;SDS011;62754;48.252;11.654;2023-07-22T08:08:29;3.25;;;1.55;;
74269;SDS011;62754;48.252;11.654;2023-07-22T08:11:02;2.85;;;1.38;;
74269;SDS011;62754;48.252;11.654;2023-07-22T08:13:32;3.35;;;1.10;;
74269;SDS011;62754;48.252;11.654;2023-07-22T08:16:03;2.53;;;1.20;;
74269;SDS011;62754;48.252;11.654;2023-07-22T08:18:31;2.97;;;1.00;;
74269;SDS011;62754;48.252;11.654;2023-07-22T08:20:58;3.15;;;1.20;;
74269;SDS011;62754;48.252;11.654;2023-07-22T08:23:24;3.38;;;1.20;;
74269;SDS011;62754;48.252;11.654;2023-07-22T08:25:50;2.33;;;0.93;;
74269;SDS011;62754;48.252;11.654;2023-07-22T08:28:16;2.40;;;1.20;;
74269;SDS011;62754;48.252;11.654;2023-07-22T08:30:44;2.88;;;1.10;;
74269;SDS011;62754;48.252;11.654;2023-07-22T08:33:13;3.28;;;1.20;;
74269;SDS011;62754;48.252;11.654;2023-07-22T08:35:39;2.72;;;1.15;;
74269;SDS011;62754;48.252;11.654;2023-07-22T08:38:08;3.03;;;1.00;;
74269;SDS011;62754;48.252;11.654;2023-07-22T08:43:06;3.42;;;1.17;;
74269;SDS011;62754;48.252;11.654;2023-07-22T08:45:37;3.05;;;1.20;;
74269;SDS011;62754;48.252;11.654;2023-07-22T08:48:08;2.25;;;0.93;;
74269;SDS011;62754;48.252;11.654;2023-07-22T08:53:28;3.20;;;1.27;;
74269;SDS011;62754;48.252;11.654;2023-07-22T08:55:55;2.92;;;0.90;;
74269;SDS011;62754;48.252;11.654;2023-07-22T08:58:23;4.07;;;1.30;;
74269;SDS011;62754;48.252;11.654;2023-07-22T09:00:50;3.72;;;1.20;;
74269;SDS011;62754;48.252;11.654;2023-07-22T09:03:19;1.88;;;0.90;;
74269;SDS011;62754;48.252;11.654;2023-07-22T09:05:47;3.05;;;1.23;;
74269;SDS011;62754;48.252;11.654;2023-07-22T09:08:13;3.00;;;1.10;;
74269;SDS011;62754;48.252;11.654;2023-07-22T09:10:41;2.83;;;0.82;;
74269;SDS011;62754;48.252;11.654;2023-07-22T09:13:08;2.67;;;1.05;;
74269;SDS011;62754;48.252;11.654;2023-07-22T09:15:34;2.78;;;0.98;;
74269;SDS011;62754;48.252;11.654;2023-07-22T09:18:01;3.50;;;1.30;;
74269;SDS011;62754;48.252;11.654;2023-07-22T09:20:27;5.00;;;1.15;;
74269;SDS011;62754;48.252;11.654;2023-07-22T09:22:55;4.18;;;1.38;;
74269;SDS011;62754;48.252;11.654;2023-07-22T09:27:52;2.05;;;1.10;;
74269;SDS011;62754;48.252;11.654;2023-07-22T09:32:46;2.72;;;1.23;;
74269;SDS011;62754;48.252;11.654;2023-07-22T09:35:12;3.03;;;1.00;;
74269;SDS011;62754;48.252;11.654;2023-07-22T09:37:40;3.22;;;0.90;;
74269;SDS011;62754;48.252;11.654;2023-07-22T09:40:21;3.70;;;1.20;;
74269;SDS011;62754;48.252;11.654;2023-07-22T09:42:51;4.00;;;1.00;;
74269;SDS011;62754;48.252;11.654;2023-07-22T09:45:24;2.50;;;1.10;;
74269;SDS011;62754;48.252;11.654;2023-07-22T09:47:54;4.93;;;1.02;;
74269;SDS011;62754;48.252;11.654;2023-07-22T09:50:24;2.65;;;1.08;;
74269;SDS011;62754;48.252;11.654;2023-07-22T09:52:54;2.60;;;1.10;;
74269;SDS011;62754;48.252;11.654;2023-07-22T09:55:22;2.33;;;1.10;;
74269;SDS011;62754;48.252;11.654;2023-07-22T09:57:50;2.13;;;0.80;;
74269;SDS011;62754;48.252;11.654;2023-07-22T10:00:20;2.10;;;1.00;;
74269;SDS011;62754;48.252;11.654;2023-07-22T10:02:48;2.58;;;1.25;;
74269;SDS011;62754;48.252;11.654;2023-07-22T10:05:19;2.60;;;1.00;;
74269;SDS011;62754;48.252;11.654;2023-07-22T10:07:49;2.55;;;1.00;;
74269;SDS011;62754;48.252;11.654;2023-07-22T10:10:20;2.97;;;1.20;;
74269;SDS011;62754;48.252;11.654;2023-07-22T10:12:56;3.60;;;1.10;;
74269;SDS011;62754;48.252;11.654;2023-07-22T10:15:25;2.35;;;1.15;;
74269;SDS011;62754;48.252;11.654;2023-07-22T10:17:56;2.90;;;1.10;;
74269;SDS011;62754;48.252;11.654;2023-07-22T10:20:23;1.95;;;0.77;;
74269;SDS011;62754;48.252;11.654;2023-07-22T10:22:52;3.88;;;1.00;;
74269;SDS011;62754;48.252;11.654;2023-07-22T10:25:18;2.20;;;1.05;;
74269;SDS011;62754;48.252;11.654;2023-07-22T10:27:46;2.72;;;0.93;;
74269;SDS011;62754;48.252;11.654;2023-07-22T10:30:16;3.15;;;0.90;;
74269;SDS011;62754;48.252;11.654;2023-07-22T10:32:44;3.05;;;0.90;;
74269;SDS011;62754;48.252;11.654;2023-07-22T10:37:56;2.28;;;0.95;;
74269;SDS011;62754;48.252;11.654;2023-07-22T10:40:52;2.25;;;0.82;;
74269;SDS011;62754;48.252;11.654;2023-07-22T10:45:51;5.47;;;2.28;;
74269;SDS011;62754;48.252;11.654;2023-07-22T10:48:19;3.00;;;0.80;;
74269;SDS011;62754;48.252;11.654;2023-07-22T10:50:49;2.42;;;0.95;;
74269;SDS011;62754;48.252;11.654;2023-07-22T11:06:30;3.45;;;1.20;;
74269;SDS011;62754;48.252;11.654;2023-07-22T11:11:40;2.47;;;1.17;;
74269;SDS011;62754;48.252;11.654;2023-07-22T11:14:20;1.80;;;0.88;;
74269;SDS011;62754;48.252;11.654;2023-07-22T11:16:47;1.83;;;0.82;;
74269;SDS011;62754;48.252;11.654;2023-07-22T11:19:16;2.15;;;1.00;;
74269;SDS011;62754;48.252;11.654;2023-07-22T11:21:46;3.63;;;1.20;;
74269;SDS011;62754;48.252;11.654;2023-07-22T11:24:16;2.70;;;1.08;;
74269;SDS011;62754;48.252;11.654;2023-07-22T11:26:42;2.30;;;1.00;;
74269;SDS011;62754;48.252;11.654;2023-07-22T11:29:11;2.45;;;1.02;;
74269;SDS011;62754;48.252;11.654;2023-07-22T11:31:40;2.45;;;0.90;;
74269;SDS011;62754;48.252;11.654;2023-07-22T11:36:42;2.00;;;0.90;;
74269;SDS011;62754;48.252;11.654;2023-07-22T11:39:12;3.85;;;1.20;;
74269;SDS011;62754;48.252;11.654;2023-07-22T11:41:42;3.20;;;1.00;;
74269;SDS011;62754;48.252;11.654;2023-07-22T11:44:09;5.70;;;1.00;;
74269;SDS011;62754;48.252;11.654;2023-07-22T11:46:36;1.85;;;1.02;;
74269;SDS011;62754;48.252;11.654;2023-07-22T11:49:13;2.65;;;1.00;;
74269;SDS011;62754;48.252;11.654;2023-07-22T11:51:49;2.97;;;1.02;;
74269;SDS011;62754;48.252;11.654;2023-07-22T11:56:47;2.20;;;1.10;;
74269;SDS011;62754;48.252;11.654;2023-07-22T11:59:13;3.05;;;1.23;;
74269;SDS011;62754;48.252;11.654;2023-07-22T12:01:44;1.75;;;0.90;;
74269;SDS011;62754;48.252;11.654;2023-07-22T12:04:13;2.13;;;0.85;;
74269;SDS011;62754;48.252;11.654;2023-07-22T12:06:39;2.28;;;0.90;;
74269;SDS011;62754;48.252;11.654;2023-07-22T12:09:08;1.75;;;0.80;;
74269;SDS011;62754;48.252;11.654;2023-07-22T12:11:35;2.42;;;1.00;;
74269;SDS011;62754;48.252;11.654;2023-07-22T12:14:12;2.88;;;1.15;;
74269;SDS011;62754;48.252;11.654;2023-07-22T12:16:41;3.40;;;1.00;;
74269;SDS011;62754;48.252;11.654;2023-07-22T12:19:08;2.20;;;0.98;;
74269;SDS011;62754;48.252;11.654;2023-07-22T12:21:35;2.38;;;1.02;;
74269;SDS011;62754;48.252;11.654;2023-07-22T12:24:01;2.88;;;1.40;;
74269;SDS011;62754;48.252;11.654;2023-07-22T12:26:29;2.63;;;0.93;;
74269;SDS011;62754;48.252;11.654;2023-07-22T12:28:58;2.58;;;1.00;;
74269;SDS011;62754;48.252;11.654;2023-07-22T12:31:26;1.95;;;0.98;;
74269;SDS011;62754;48.252;11.654;2023-07-22T12:33:52;2.25;;;1.10;;
74269;SDS011;62754;48.252;11.654;2023-07-22T12:36:18;2.38;;;0.82;;
74269;SDS011;62754;48.252;11.654;2023-07-22T12:38:46;7.13;;;1.30;;
74269;SDS011;62754;48.252;11.654;2023-07-22T12:41:12;1.77;;;0.70;;
74269;SDS011;62754;48.252;11.654;2023-07-22T12:43:38;4.22;;;1.10;;
74269;SDS011;62754;48.252;11.654;2023-07-22T12:46:07;3.45;;;1.20;;
74269;SDS011;62754;48.252;11.654;2023-07-22T12:48:32;2.00;;;1.10;;
74269;SDS011;62754;48.252;11.654;2023-07-22T12:51:00;4.18;;;1.10;;
74269;SDS011;62754;48.252;11.654;2023-07-22T12:53:26;3.13;;;1.08;;
74269;SDS011;62754;48.252;11.654;2023-07-22T12:55:52;2.75;;;1.02;;
74269;SDS011;62754;48.252;11.654;2023-07-22T12:58:18;3.33;;;1.15;;
74269;SDS011;62754;48.252;11.654;2023-07-22T13:00:46;3.97;;;1.10;;
74269;SDS011;62754;48.252;11.654;2023-07-22T13:03:12;3.53;;;1.38;;
74269;SDS011;62754;48.252;11.654;2023-07-22T13:05:38;2.85;;;1.20;;
74269;SDS011;62754;48.252;11.654;2023-07-22T13:08:06;2.13;;;1.10;;
74269;SDS011;62754;48.252;11.654;2023-07-22T13:10:34;2.17;;;1.00;;
74269;SDS011;62754;48.252;11.654;2023-07-22T13:13:02;3.35;;;1.10;;
74269;SDS011;62754;48.252;11.654;2023-07-22T13:15:30;2.38;;;1.05;;
74269;SDS011;62754;48.252;11.654;2023-07-22T13:17:58;2.83;;;1.20;;
74269;SDS011;62754;48.252;11.654;2023-07-22T13:20:28;3.05;;;1.20;;
74269;SDS011;62754;48.252;11.654;2023-07-22T13:22:54;2.90;;;1.33;;
74269;SDS011;62754;48.252;11.654;2023-07-22T13:25:23;2.20;;;0.90;;
74269;SDS011;62754;48.252;11.654;2023-07-22T13:27:51;1.98;;;0.98;;
74269;SDS011;62754;48.252;11.654;2023-07-22T13:30:16;4.28;;;1.30;;
74269;SDS011;62754;48.252;11.654;2023-07-22T13:32:44;2.45;;;1.10;;
74269;SDS011;62754;48.252;11.654;2023-07-22T13:35:14;2.55;;;1.20;;
74269;SDS011;62754;48.252;11.654;2023-07-22T13:37:40;2.03;;;0.98;;
74269;SDS011;62754;48.252;11.654;2023-07-22T13:40:08;3.60;;;1.27;;
74269;SDS011;62754;48.252;11.654;2023-07-22T13:42:34;2.50;;;1.10;;
74269;SDS011;62754;48.252;11.654;2023-07-22T13:45:04;2.30;;;1.00;;
74269;SDS011;62754;48.252;11.654;2023-07-22T13:47:30;2.38;;;1.20;;
74269;SDS011;62754;48.252;11.654;2023-07-22T13:49:56;1.95;;;1.08;;
74269;SDS011;62754;48.252;11.654;2023-07-22T13:52:22;2.95;;;1.27;;
74269;SDS011;62754;48.252;11.654;2023-07-22T13:54:48;2.78;;;1.27;;
74269;SDS011;62754;48.252;11.654;2023-07-22T13:57:13;2.63;;;1.30;;
74269;SDS011;62754;48.252;11.654;2023-07-22T13:59:39;2.92;;;1.33;;
74269;SDS011;62754;48.252;11.654;2023-07-22T14:02:07;2.95;;;1.15;;
74269;SDS011;62754;48.252;11.654;2023-07-22T14:04:35;2.70;;;1.38;;
74269;SDS011;62754;48.252;11.654;2023-07-22T14:07:01;3.20;;;1.23;;
74269;SDS011;62754;48.252;11.654;2023-07-22T14:09:28;2.70;;;1.25;;
74269;SDS011;62754;48.252;11.654;2023-07-22T14:11:54;2.78;;;1.17;;
74269;SDS011;62754;48.252;11.654;2023-07-22T14:14:20;2.45;;;1.30;;
74269;SDS011;62754;48.252;11.654;2023-07-22T14:16:46;2.63;;;1.27;;
74269;SDS011;62754;48.252;11.654;2023-07-22T14:19:11;2.92;;;1.10;;
74269;SDS011;62754;48.252;11.654;2023-07-22T14:21:37;3.05;;;1.10;;
74269;SDS011;62754;48.252;11.654;2023-07-22T14:24:06;5.47;;;1.58;;
74269;SDS011;62754;48.252;11.654;2023-07-22T14:26:31;2.58;;;1.20;;
74269;SDS011;62754;48.252;11.654;2023-07-22T14:29:00;2.30;;;1.23;;
74269;SDS011;62754;48.252;11.654;2023-07-22T14:31:28;5.05;;;1.60;;
74269;SDS011;62754;48.252;11.654;2023-07-22T14:33:56;4.70;;;1.60;;
74269;SDS011;62754;48.252;11.654;2023-07-22T14:36:24;2.47;;;1.35;;
74269;SDS011;62754;48.252;11.654;2023-07-22T14:38:52;3.08;;;1.60;;
74269;SDS011;62754;48.252;11.654;2023-07-22T14:41:20;2.63;;;1.33;;
74269;SDS011;62754;48.252;11.654;2023-07-22T14:43:48;3.95;;;1.52;;
74269;SDS011;62754;48.252;11.654;2023-07-22T14:46:14;3.45;;;1.58;;
74269;SDS011;62754;48.252;11.654;2023-07-22T14:48:40;3.05;;;1.50;;
74269;SDS011;62754;48.252;11.654;2023-07-22T14:51:10;4.32;;;1.63;;
74269;SDS011;62754;48.252;11.654;2023-07-22T14:53:41;4.20;;;1.42;;
74269;SDS011;62754;48.252;11.654;2023-07-22T14:56:07;3.00;;;1.50;;
74269;SDS011;62754;48.252;11.654;2023-07-22T14:58:32;3.88;;;1.67;;
74269;SDS011;62754;48.252;11.654;2023-07-22T15:01:01;5.00;;;1.50;;
74269;SDS011;62754;48.252;11.654;2023-07-22T15:03:29;4.50;;;1.92;;
74269;SDS011;62754;48.252;11.654;2023-07-22T15:05:55;3.60;;;1.55;;
74269;SDS011;62754;48.252;11.654;2023-07-22T15:08:20;2.45;;;1.30;;
74269;SDS011;62754;48.252;11.654;2023-07-22T15:10:46;3.03;;;1.52;;
74269;SDS011;62754;48.252;11.654;2023-07-22T15:13:12;2.97;;;1.63;;
74269;SDS011;62754;48.252;11.654;2023-07-22T15:15:40;3.55;;;1.70;;
74269;SDS011;62754;48.252;11.654;2023-07-22T15:18:06;3.22;;;1.63;;